Chester, Utah
Current Conditions -  °F | °C
As of 7:53 PM on Saturday 20 Dec 2014 (Local Time) from KPUC Reporting Station
Overcast Overcast  
Wind Chill: 31°   Ceiling: 1900
Heat Index: 31°   Visibility: 9mi
Dew Point: 26°   Wind: 3mph
Humidity: 82%   Direction: 100°E
Pressure: 30.08"   Gusts: NA
Location:  39.48°N, 111.56°W
Report Text: KPUC 210253Z AUTO 10003KT 9SM BKN019 OVC050 M01/M03 A3008 RMK AO2 SLP222 T10061033 58008
Loading
Personal Weather Stations






























Interactive Weather Map New forecast layout! Learn more

10-Day Weather Forecast

Advertisements
Track Severe Weather on mobile